Terminal Aerodrome Forecast
Issued by NWS

Home | Current Version | Previous Version | Text Only | Print | Product List | Glossary On
Versions: 1 2 3 4 5 6 7 8 9 10 11 12 13 14 15 16 17 18 19 20 21 22 23 24 25 26 27
000
FTUS43 KSGF 201724
TAFJLN
TAF
KJLN 201724Z 2018/2118 18010KT P6SM SKC
     FM210000 17014G24KT P6SM BKN250 WS020/18040KT
     FM211600 18020G28KT P6SM BKN040 WS020/19030KT=

USA.gov is the U.S. government's official web portal to all federal, state and local government web resources and services.